Main page
Satellite images 10-day forecastsClimateMarine weather Cyclones Lightning AirportsFAQ Newsletter About
Weather : Europe Africa North America South America Asia Australia-Oceania Others
Languages Contact

Çorlu, Turkey

Tekirdağ Çorlu Airport

latitude: 41-08N, longitude: 027-55E, elevation: 173 m


METAR: LTBU 020150Z 02011KT 9999 FEW025 22/19 Q1018
TAF: LTBU 012240Z 0200/0224 03015KT 9999 SCT030

Time: 05:15 (02:15 UTC)

Current weather observation

The report was made 25 minutes ago, at 01:50 UTC
Wind 11 kt from the North/Northeast
Temperature 22°C
Humidity 83%
Pressure 1018 hPa
Visibility 10 km or more
Few clouds at a height of 2500 ft

Change units

Forecast

The report was made 3 hours and 35 minutes ago, at 22:40 UTC
Forecast valid from 02 at 00 UTC to 02 at 24 UTC
Wind 15 kt from the North/Northeast
Visibility 10 km or more
Scattered clouds at a height of 3000 ft
The information on this site is subject to a disclaimer
Weather : Europe Africa North America South America Asia Australia-Oceania Others
Satellite images 10-day forecastsClimateMarine weather Cyclones Lightning AirportsFAQ Languages Contact Newsletter About